createdAt,value
2022-12-11T00:00:25.872Z,10.29
2022-12-11T00:03:15.793Z,10.27
2022-12-11T00:05:44.236Z,10.25
2022-12-11T00:08:12.327Z,10.22
2022-12-11T00:10:39.180Z,10.19
2022-12-11T00:13:05.995Z,10.18
2022-12-11T00:15:32.688Z,10.16
2022-12-11T00:17:59.558Z,10.15
2022-12-11T00:20:26.614Z,10.14
2022-12-11T00:22:53.492Z,10.13
2022-12-11T00:25:20.177Z,10.11
2022-12-11T00:27:47.080Z,10.09
2022-12-11T00:30:14.212Z,10.10
2022-12-11T00:32:41.075Z,10.10
2022-12-11T00:35:08.625Z,10.09
2022-12-11T00:37:36.063Z,10.08
2022-12-11T00:40:03.418Z,10.06
2022-12-11T00:42:30.079Z,10.03
2022-12-11T00:44:57.291Z,10.01
2022-12-11T00:47:23.968Z,9.99
2022-12-11T00:49:50.705Z,9.98
2022-12-11T00:52:17.504Z,9.95
2022-12-11T00:54:44.650Z,9.93
2022-12-11T00:57:11.380Z,9.91
2022-12-11T00:59:38.452Z,9.89
2022-12-11T01:02:05.048Z,9.88
2022-12-11T01:04:31.719Z,9.87
2022-12-11T01:06:58.495Z,9.86
2022-12-11T01:09:43.906Z,9.85
2022-12-11T01:12:10.679Z,9.85
2022-12-11T01:14:37.294Z,9.85
2022-12-11T01:17:04.097Z,9.86
2022-12-11T01:19:30.871Z,9.88
2022-12-11T01:21:57.610Z,9.89
2022-12-11T01:24:24.246Z,9.91
2022-12-11T01:26:50.909Z,9.93
2022-12-11T01:29:17.586Z,9.96
2022-12-11T01:31:44.235Z,9.98
2022-12-11T01:34:11.895Z,10.00
2022-12-11T01:36:38.755Z,10.00
2022-12-11T01:39:05.556Z,10.00
2022-12-11T01:41:32.192Z,10.00
2022-12-11T01:44:01.024Z,9.98
2022-12-11T01:46:28.638Z,9.96
2022-12-11T01:48:56.161Z,9.95
2022-12-11T01:51:24.225Z,9.93
2022-12-11T01:54:05.619Z,9.91
2022-12-11T01:56:35.721Z,9.89
2022-12-11T01:59:06.866Z,9.87
2022-12-11T02:01:45.188Z,9.84
2022-12-11T02:04:15.691Z,9.81
2022-12-11T02:06:48.455Z,9.79
2022-12-11T02:09:16.681Z,9.75
2022-12-11T02:11:51.329Z,9.72
2022-12-11T02:14:23.679Z,9.69
2022-12-11T02:17:06.760Z,9.65
2022-12-11T02:19:54.243Z,9.63
2022-12-11T02:22:32.747Z,9.59
2022-12-11T02:25:30.754Z,9.56
2022-12-11T02:28:24.550Z,9.53
2022-12-11T02:30:56.601Z,9.50
2022-12-11T02:33:42.009Z,9.49
2022-12-11T02:36:09.549Z,9.50
2022-12-11T02:38:41.280Z,9.49
2022-12-11T02:41:11.307Z,9.48
2022-12-11T02:43:39.772Z,9.48
2022-12-11T02:46:07.594Z,9.47
2022-12-11T02:48:36.440Z,9.46
2022-12-11T02:51:06.101Z,9.45
2022-12-11T02:53:37.350Z,9.44
2022-12-11T02:56:18.632Z,9.43
2022-12-11T02:58:52.729Z,9.41
2022-12-11T03:01:22.279Z,9.40
2022-12-11T03:03:48.935Z,9.40
2022-12-11T03:06:19.963Z,9.39
2022-12-11T03:08:46.618Z,9.38
2022-12-11T03:11:13.428Z,9.36
2022-12-11T03:13:42.040Z,9.35
2022-12-11T03:16:30.494Z,9.33
2022-12-11T03:19:15.278Z,9.31
2022-12-11T03:21:54.126Z,9.30
2022-12-11T03:24:20.658Z,9.28
2022-12-11T03:26:56.637Z,9.27
2022-12-11T03:29:31.073Z,9.26
2022-12-11T03:32:08.426Z,9.25
2022-12-11T03:35:05.197Z,9.25
2022-12-11T03:37:36.169Z,9.25
2022-12-11T03:40:09.579Z,9.24
2022-12-11T03:42:39.523Z,9.24
2022-12-11T03:45:08.289Z,9.24
2022-12-11T03:47:37.498Z,9.23
2022-12-11T03:50:07.128Z,9.23
2022-12-11T03:52:36.267Z,9.25
2022-12-11T03:55:06.072Z,9.28
2022-12-11T03:57:36.489Z,9.30
2022-12-11T04:00:09.446Z,9.33
2022-12-11T04:02:39.612Z,9.35
2022-12-11T04:05:07.008Z,9.35
2022-12-11T04:07:33.847Z,9.36
2022-12-11T04:10:01.063Z,9.37
2022-12-11T04:12:27.800Z,9.37
2022-12-11T04:15:03.616Z,9.32
2022-12-11T04:18:08.173Z,9.27
2022-12-11T04:20:53.655Z,9.22
2022-12-11T04:23:39.225Z,9.16
2022-12-11T04:26:12.310Z,9.11
2022-12-11T04:28:41.673Z,9.07
2022-12-11T04:31:19.810Z,9.04
2022-12-11T04:33:47.381Z,9.00
2022-12-11T04:36:14.460Z,8.98
2022-12-11T04:38:41.121Z,8.96
2022-12-11T04:41:10.714Z,8.95
2022-12-11T04:43:37.859Z,8.95
2022-12-11T04:46:08.906Z,8.93
2022-12-11T04:48:36.890Z,8.92
2022-12-11T04:51:04.218Z,8.90
2022-12-11T04:53:31.248Z,8.87
2022-12-11T04:55:57.895Z,8.86
2022-12-11T04:58:27.195Z,8.85
2022-12-11T05:00:53.849Z,8.83
2022-12-11T05:03:20.673Z,8.83
2022-12-11T05:05:52.653Z,8.82
2022-12-11T05:08:20.593Z,8.80
2022-12-11T05:11:01.176Z,8.78
2022-12-11T05:13:29.650Z,8.78
2022-12-11T05:15:57.619Z,8.77
2022-12-11T05:18:24.911Z,8.77
2022-12-11T05:21:00.442Z,8.76
2022-12-11T05:23:28.105Z,8.76
2022-12-11T05:25:56.453Z,8.76
2022-12-11T05:28:24.677Z,8.76
2022-12-11T05:31:05.842Z,8.76
2022-12-11T05:33:33.617Z,8.77
2022-12-11T05:36:00.945Z,8.78
2022-12-11T05:38:27.731Z,8.78
2022-12-11T05:41:02.961Z,8.78
2022-12-11T05:43:31.885Z,8.80
2022-12-11T05:46:09.080Z,8.80
2022-12-11T05:48:37.607Z,8.80
2022-12-11T05:51:06.008Z,8.80
2022-12-11T05:53:33.034Z,8.79
2022-12-11T05:56:05.804Z,8.78
2022-12-11T05:58:33.554Z,8.78
2022-12-11T06:01:01.022Z,8.78
2022-12-11T06:03:28.917Z,8.77
2022-12-11T06:05:55.539Z,8.77
2022-12-11T06:08:22.211Z,8.77
2022-12-11T06:10:50.659Z,8.76
2022-12-11T06:13:17.882Z,8.75
2022-12-11T06:15:44.592Z,8.77
2022-12-11T06:18:11.418Z,8.81
2022-12-11T06:20:38.294Z,8.85
2022-12-11T06:23:05.212Z,8.92
2022-12-11T06:25:31.862Z,9.00
2022-12-11T06:27:58.582Z,9.05
2022-12-11T06:30:38.758Z,9.06
2022-12-11T06:33:06.580Z,9.04
2022-12-11T06:35:38.626Z,9.04
2022-12-11T06:38:10.033Z,9.03
2022-12-11T06:40:36.770Z,9.04
2022-12-11T06:43:03.569Z,9.05
2022-12-11T06:45:30.382Z,9.07
2022-12-11T06:47:57.853Z,9.08
2022-12-11T06:50:24.562Z,9.10
2022-12-11T06:52:51.575Z,9.12
2022-12-11T06:55:18.346Z,9.12
2022-12-11T06:57:45.144Z,9.13
2022-12-11T07:00:12.442Z,9.12
2022-12-11T07:02:39.137Z,9.12
2022-12-11T07:05:06.311Z,9.12
2022-12-11T07:07:33.799Z,9.11
2022-12-11T07:10:07.583Z,9.11
2022-12-11T07:12:36.764Z,9.11
2022-12-11T07:15:05.798Z,9.12
2022-12-11T07:17:32.582Z,9.12
2022-12-11T07:19:59.363Z,9.11
2022-12-11T07:22:26.115Z,9.12
2022-12-11T07:24:52.693Z,9.12
2022-12-11T07:27:19.327Z,9.14
2022-12-11T07:29:46.086Z,9.15
2022-12-11T07:32:12.912Z,9.16
2022-12-11T07:34:39.683Z,9.18
2022-12-11T07:37:06.507Z,9.22
2022-12-11T07:39:33.405Z,9.29
2022-12-11T07:42:00.185Z,9.34
2022-12-11T07:44:26.822Z,9.39
2022-12-11T07:46:53.475Z,9.43
2022-12-11T07:49:20.478Z,9.46
2022-12-11T07:51:47.107Z,9.48
2022-12-11T07:54:16.245Z,9.51
2022-12-11T07:56:47.413Z,9.51
2022-12-11T07:59:16.701Z,9.50
2022-12-11T08:01:43.622Z,9.48
2022-12-11T08:04:11.663Z,9.47
2022-12-11T08:06:39.870Z,9.45
2022-12-11T08:09:09.443Z,9.41
2022-12-11T08:11:36.857Z,9.36
2022-12-11T08:14:06.026Z,9.31
2022-12-11T08:16:32.914Z,9.26
2022-12-11T08:18:59.834Z,9.20
2022-12-11T08:21:27.890Z,9.12
2022-12-11T08:23:55.410Z,9.05
2022-12-11T08:26:31.717Z,8.99
2022-12-11T08:28:59.870Z,8.90
2022-12-11T08:31:27.042Z,8.83
2022-12-11T08:33:55.952Z,8.77
2022-12-11T08:36:24.283Z,8.72
2022-12-11T08:38:54.656Z,8.65
2022-12-11T08:41:30.743Z,8.58
2022-12-11T08:43:59.691Z,8.52
2022-12-11T08:46:29.094Z,8.48
2022-12-11T08:48:57.360Z,8.43
2022-12-11T08:51:26.969Z,8.39
2022-12-11T08:53:55.718Z,8.37
2022-12-11T08:56:23.150Z,8.35
2022-12-11T08:58:50.797Z,8.33
2022-12-11T09:01:23.628Z,8.30
2022-12-11T09:03:53.394Z,8.27
2022-12-11T09:06:22.916Z,8.23
2022-12-11T09:08:52.946Z,8.19
2022-12-11T09:11:23.558Z,8.14
2022-12-11T09:13:51.152Z,8.09
2022-12-11T09:16:20.824Z,8.05
2022-12-11T09:18:49.819Z,8.00
2022-12-11T09:21:18.707Z,7.98
2022-12-11T09:23:46.116Z,7.95
2022-12-11T09:26:15.895Z,7.92
2022-12-11T09:28:46.545Z,7.90
2022-12-11T09:31:36.053Z,7.87
2022-12-11T09:34:08.607Z,7.86
2022-12-11T09:36:37.424Z,7.84
2022-12-11T09:39:07.156Z,7.83
2022-12-11T09:41:42.976Z,7.82
2022-12-11T09:44:31.631Z,7.81
2022-12-11T09:46:59.182Z,7.80
2022-12-11T09:49:38.695Z,7.79
2022-12-11T09:52:35.787Z,7.79
2022-12-11T09:55:23.962Z,7.80
2022-12-11T09:58:17.960Z,7.83
2022-12-11T10:00:54.664Z,7.87
2022-12-11T10:03:43.402Z,7.90
2022-12-11T10:06:30.101Z,7.93
2022-12-11T10:09:10.407Z,7.96
2022-12-11T10:11:42.987Z,7.99
2022-12-11T10:14:28.040Z,8.01
2022-12-11T10:17:03.734Z,8.04
2022-12-11T10:19:32.137Z,8.06
2022-12-11T10:22:00.740Z,8.06
2022-12-11T10:25:09.933Z,8.06
2022-12-11T10:27:31.872Z,8.06
2022-12-11T10:30:13.244Z,8.06
2022-12-11T10:32:53.586Z,8.04
2022-12-11T10:35:36.132Z,8.01
2022-12-11T10:38:23.365Z,7.91
2022-12-11T10:40:54.139Z,7.66
2022-12-11T10:43:42.120Z,7.39
2022-12-11T10:46:21.833Z,7.12
2022-12-11T10:48:59.710Z,6.84
2022-12-11T10:51:29.532Z,6.65
2022-12-11T10:54:06.865Z,6.51
2022-12-11T10:56:37.244Z,6.32
2022-12-11T10:59:04.532Z,6.13
2022-12-11T11:01:32.235Z,5.95
2022-12-11T11:04:20.167Z,5.79
2022-12-11T11:06:48.322Z,5.63
2022-12-11T11:09:30.083Z,5.53
2022-12-11T11:11:56.852Z,5.43
2022-12-11T11:14:23.578Z,5.33
2022-12-11T11:16:55.624Z,5.22
2022-12-11T11:19:34.495Z,5.12
2022-12-11T11:22:05.714Z,5.02
2022-12-11T11:24:32.360Z,4.94
2022-12-11T11:27:14.974Z,4.90
2022-12-11T11:29:42.516Z,5.00
2022-12-11T11:32:32.918Z,5.21
2022-12-11T11:35:16.939Z,5.44
2022-12-11T11:37:57.669Z,5.59
2022-12-11T11:41:14.715Z,5.67
2022-12-11T11:43:45.938Z,5.87
2022-12-11T11:46:37.205Z,6.11
2022-12-11T11:49:16.335Z,6.28
2022-12-11T11:51:48.524Z,6.37
2022-12-11T11:54:42.321Z,6.42
2022-12-11T11:57:32.012Z,6.42
2022-12-11T12:00:14.722Z,6.45
2022-12-11T12:02:41.785Z,6.64
2022-12-11T12:05:13.350Z,6.79
2022-12-11T12:07:47.724Z,6.87
2022-12-11T12:10:25.936Z,6.87
2022-12-11T12:13:44.770Z,6.78
2022-12-11T12:16:17.686Z,6.66
2022-12-11T12:19:03.677Z,6.55
2022-12-11T12:21:44.201Z,6.42
2022-12-11T12:24:25.959Z,6.27
2022-12-11T12:26:59.821Z,6.04
2022-12-11T12:29:51.615Z,5.84
2022-12-11T12:32:30.541Z,5.70
2022-12-11T12:35:02.467Z,5.61
2022-12-11T12:37:50.403Z,5.53
2022-12-11T12:41:01.886Z,5.45
2022-12-11T12:43:52.146Z,5.36
2022-12-11T12:46:37.194Z,5.28
2022-12-11T12:49:07.787Z,5.21
2022-12-11T12:51:34.762Z,5.17
2022-12-11T12:54:06.668Z,5.11
2022-12-11T12:56:40.207Z,5.08
2022-12-11T12:59:20.003Z,5.04
2022-12-11T13:01:51.605Z,4.96
2022-12-11T13:07:32.053Z,4.87
2022-12-11T13:10:01.758Z,4.82
2022-12-11T13:12:41.867Z,4.77
2022-12-11T13:15:28.749Z,4.72
2022-12-11T13:17:56.511Z,4.66
2022-12-11T13:20:27.056Z,4.59
2022-12-11T13:22:54.266Z,4.55
2022-12-11T13:25:30.799Z,4.50
2022-12-11T13:28:19.334Z,4.42
2022-12-11T13:30:57.373Z,4.34
2022-12-11T13:33:26.551Z,4.28
2022-12-11T13:36:21.359Z,4.23
2022-12-11T13:38:54.988Z,4.18
2022-12-11T13:41:22.694Z,4.12
2022-12-11T13:43:56.616Z,4.05
2022-12-11T13:46:31.348Z,3.99
2022-12-11T13:49:04.284Z,3.93
2022-12-11T13:51:34.483Z,3.87
2022-12-11T13:54:21.472Z,3.82
2022-12-11T13:57:13.543Z,3.76
2022-12-11T13:59:49.263Z,3.71
2022-12-11T14:02:29.748Z,3.67
2022-12-11T14:05:00.403Z,3.62
2022-12-11T14:07:34.085Z,3.56
2022-12-11T14:10:18.737Z,3.50
2022-12-11T14:12:54.037Z,3.42
2022-12-11T14:15:21.261Z,3.37
2022-12-11T14:17:51.829Z,3.32
2022-12-11T14:20:23.407Z,3.29
2022-12-11T14:22:50.389Z,3.26
2022-12-11T14:25:27.154Z,3.21
2022-12-11T14:27:56.117Z,3.15
2022-12-11T14:30:25.478Z,3.12
2022-12-11T14:33:02.540Z,3.11
2022-12-11T14:35:37.070Z,3.07
2022-12-11T14:38:15.949Z,3.04
2022-12-11T14:40:46.494Z,3.00
2022-12-11T14:43:26.249Z,2.96
2022-12-11T14:46:01.765Z,2.92
2022-12-11T14:48:36.478Z,2.89
2022-12-11T14:51:06.963Z,2.86
2022-12-11T14:53:53.889Z,2.83
2022-12-11T14:56:25.036Z,2.79
2022-12-11T14:59:06.232Z,2.75
2022-12-11T15:01:35.857Z,2.70
2022-12-11T15:04:07.124Z,2.66
2022-12-11T15:06:45.655Z,2.60
2022-12-11T15:09:35.075Z,2.53
2022-12-11T15:12:15.262Z,2.46
2022-12-11T15:15:00.683Z,2.40
2022-12-11T15:17:30.489Z,2.36
2022-12-11T15:20:08.419Z,2.34
2022-12-11T15:22:36.811Z,2.33
2022-12-11T15:25:05.210Z,2.32
2022-12-11T15:27:37.322Z,2.31
2022-12-11T15:30:21.318Z,2.30
2022-12-11T15:32:48.193Z,2.28
2022-12-11T15:35:26.900Z,2.26
2022-12-11T15:37:55.843Z,2.25
2022-12-11T15:40:23.562Z,2.25
2022-12-11T15:42:51.355Z,2.25
2022-12-11T15:45:21.133Z,2.24
2022-12-11T15:47:49.087Z,2.22
2022-12-11T15:50:22.714Z,2.20
2022-12-11T15:52:51.023Z,2.18
2022-12-11T15:55:19.377Z,2.15
2022-12-11T15:57:58.911Z,2.11
2022-12-11T16:00:27.556Z,2.07
2022-12-11T16:02:56.436Z,2.01
2022-12-11T16:05:26.179Z,1.97
2022-12-11T16:07:58.820Z,1.93
2022-12-11T16:10:26.428Z,1.88
2022-12-11T16:12:56.098Z,1.85
2022-12-11T16:15:24.084Z,1.79
2022-12-11T16:17:59.254Z,1.77
2022-12-11T16:20:25.971Z,1.74
2022-12-11T16:22:52.675Z,1.73
2022-12-11T16:25:19.326Z,1.70
2022-12-11T16:27:46.457Z,1.68
2022-12-11T16:30:13.729Z,1.66
2022-12-11T16:32:40.444Z,1.63
2022-12-11T16:35:07.484Z,1.61
2022-12-11T16:37:34.477Z,1.59
2022-12-11T16:40:01.311Z,1.57
2022-12-11T16:42:28.138Z,1.55
2022-12-11T16:45:03.900Z,1.50
2022-12-11T16:47:30.749Z,1.48
2022-12-11T16:49:58.629Z,1.44
2022-12-11T16:52:25.359Z,1.40
2022-12-11T16:54:52.048Z,1.38
2022-12-11T16:57:18.788Z,1.35
2022-12-11T16:59:46.934Z,1.33
2022-12-11T17:02:14.118Z,1.31
2022-12-11T17:04:41.646Z,1.30
2022-12-11T17:07:08.418Z,1.27
2022-12-11T17:09:35.442Z,1.24
2022-12-11T17:12:02.462Z,1.21
2022-12-11T17:14:29.221Z,1.19
2022-12-11T17:16:56.553Z,1.14
2022-12-11T17:19:23.652Z,1.10
2022-12-11T17:21:51.926Z,1.08
2022-12-11T17:24:19.746Z,1.05
2022-12-11T17:26:46.448Z,1.02
2022-12-11T17:29:13.574Z,1.00
2022-12-11T17:31:40.416Z,0.98
2022-12-11T17:34:07.275Z,0.96
2022-12-11T17:36:34.254Z,0.95
2022-12-11T17:39:00.991Z,0.95
2022-12-11T17:41:27.781Z,0.94
2022-12-11T17:43:55.034Z,0.93
2022-12-11T17:46:22.357Z,0.91
2022-12-11T17:48:49.804Z,0.88
2022-12-11T17:51:23.228Z,0.85
2022-12-11T17:53:54.679Z,0.81
2022-12-11T17:56:22.121Z,0.80
2022-12-11T17:58:49.213Z,0.78
2022-12-11T18:01:16.543Z,0.77
2022-12-11T18:03:43.491Z,0.77
2022-12-11T18:06:13.695Z,0.75
2022-12-11T18:08:41.461Z,0.74
2022-12-11T18:11:12.145Z,0.72
2022-12-11T18:13:40.094Z,0.71
2022-12-11T18:16:11.846Z,0.69
2022-12-11T18:18:39.746Z,0.68
2022-12-11T18:21:06.792Z,0.66
2022-12-11T18:23:33.992Z,0.63
2022-12-11T18:26:00.907Z,0.60
2022-12-11T18:28:29.757Z,0.58
2022-12-11T18:30:59.050Z,0.55
2022-12-11T18:33:26.105Z,0.54
2022-12-11T18:35:52.753Z,0.52
2022-12-11T18:38:19.583Z,0.50
2022-12-11T18:40:46.227Z,0.46
2022-12-11T18:43:12.944Z,0.42
2022-12-11T18:45:41.195Z,0.39
2022-12-11T18:48:09.003Z,0.38
2022-12-11T18:50:35.936Z,0.37
2022-12-11T18:53:03.471Z,0.35
2022-12-11T18:55:30.335Z,0.35
2022-12-11T18:57:57.964Z,0.34
2022-12-11T19:00:25.994Z,0.32
2022-12-11T19:02:52.823Z,0.30
2022-12-11T19:05:19.664Z,0.29
2022-12-11T19:07:47.299Z,0.28
2022-12-11T19:13:32.122Z,0.30
2022-12-11T19:16:01.798Z,0.26
2022-12-11T19:18:30.022Z,0.25
2022-12-11T19:21:06.740Z,0.24
2022-12-11T19:23:37.804Z,0.22
2022-12-11T19:26:11.194Z,0.20
2022-12-11T19:28:39.904Z,0.18
2022-12-11T19:31:10.408Z,0.16
2022-12-11T19:33:40.247Z,0.16
2022-12-11T19:36:11.781Z,0.15
2022-12-11T19:38:42.051Z,0.13
2022-12-11T19:41:13.864Z,0.10
2022-12-11T19:43:42.265Z,0.08
2022-12-11T19:46:11.605Z,0.05
2022-12-11T19:48:41.532Z,0.03
2022-12-11T19:51:13.160Z,0.00
2022-12-11T19:53:42.594Z,-0.02
2022-12-11T19:56:12.031Z,-0.04
2022-12-11T19:58:40.908Z,-0.05
2022-12-11T20:01:10.025Z,-0.09
2022-12-11T20:03:39.192Z,-0.10
2022-12-11T20:06:08.471Z,-0.12
2022-12-11T20:08:44.616Z,-0.14
2022-12-11T20:11:18.363Z,-0.15
2022-12-11T20:13:48.193Z,-0.16
2022-12-11T20:16:19.972Z,-0.17
2022-12-11T20:18:54.926Z,-0.18
2022-12-11T20:21:23.788Z,-0.20
2022-12-11T20:23:54.467Z,-0.21
2022-12-11T20:26:25.390Z,-0.22
2022-12-11T20:28:56.790Z,-0.23
2022-12-11T20:31:26.215Z,-0.27
2022-12-11T20:33:56.260Z,-0.30
2022-12-11T20:36:25.679Z,-0.33
2022-12-11T20:38:53.940Z,-0.37
2022-12-11T20:41:24.422Z,-0.39
2022-12-11T20:43:54.141Z,-0.41
2022-12-11T20:46:25.468Z,-0.43
2022-12-11T20:48:55.818Z,-0.44
2022-12-11T20:51:26.399Z,-0.46
2022-12-11T20:53:59.138Z,-0.47
2022-12-11T20:56:29.717Z,-0.48
2022-12-11T20:58:59.808Z,-0.49
2022-12-11T21:01:30.893Z,-0.49
2022-12-11T21:03:59.335Z,-0.49
2022-12-11T21:06:33.736Z,-0.48
2022-12-11T21:09:05.448Z,-0.47
2022-12-11T21:11:33.839Z,-0.47
2022-12-11T21:14:02.101Z,-0.46
2022-12-11T21:16:30.729Z,-0.46
2022-12-11T21:18:58.958Z,-0.46
2022-12-11T21:21:27.194Z,-0.47
2022-12-11T21:23:55.651Z,-0.49
2022-12-11T21:26:24.196Z,-0.50
2022-12-11T21:28:52.414Z,-0.51
2022-12-11T21:31:21.390Z,-0.52
2022-12-11T21:33:49.650Z,-0.53
2022-12-11T21:36:18.129Z,-0.55
2022-12-11T21:38:46.714Z,-0.56
2022-12-11T21:41:21.211Z,-0.58
2022-12-11T21:44:56.472Z,-0.59
2022-12-11T21:46:39.890Z,-0.59
2022-12-11T21:49:11.023Z,-0.60
2022-12-11T21:51:46.843Z,-0.62
2022-12-11T21:54:19.025Z,-0.63
2022-12-11T21:56:47.646Z,-0.63
2022-12-11T21:59:15.899Z,-0.64
2022-12-11T22:01:46.217Z,-0.63
2022-12-11T22:04:15.961Z,-0.64
2022-12-11T22:06:47.089Z,-0.65
2022-12-11T22:09:16.750Z,-0.66
2022-12-11T22:11:47.245Z,-0.67
2022-12-11T22:14:17.008Z,-0.67
2022-12-11T22:16:45.525Z,-0.69
2022-12-11T22:19:13.617Z,-0.69
2022-12-11T22:21:41.988Z,-0.69
2022-12-11T22:24:10.087Z,-0.71
2022-12-11T22:26:39.234Z,-0.72
2022-12-11T22:29:07.339Z,-0.74
2022-12-11T22:31:35.543Z,-0.74
2022-12-11T22:34:03.763Z,-0.74
2022-12-11T22:36:31.795Z,-0.74
2022-12-11T22:39:01.079Z,-0.73
2022-12-11T22:41:31.947Z,-0.74
2022-12-11T22:44:00.749Z,-0.75
2022-12-11T22:46:30.145Z,-0.76
2022-12-11T22:48:59.154Z,-0.77
2022-12-11T22:51:27.444Z,-0.78
2022-12-11T22:53:55.580Z,-0.78
2022-12-11T22:56:24.046Z,-0.78
2022-12-11T22:58:52.126Z,-0.79
2022-12-11T23:01:23.270Z,-0.80
2022-12-11T23:03:51.369Z,-0.81
2022-12-11T23:06:22.280Z,-0.81
2022-12-11T23:08:51.907Z,-0.81
2022-12-11T23:11:29.236Z,-0.81
2022-12-11T23:13:57.852Z,-0.80
2022-12-11T23:16:26.643Z,-0.79
2022-12-11T23:18:57.112Z,-0.78
2022-12-11T23:21:26.787Z,-0.78
2022-12-11T23:23:55.696Z,-0.77
2022-12-11T23:26:27.379Z,-0.77
2022-12-11T23:28:56.839Z,-0.76
2022-12-11T23:31:26.396Z,-0.75
2022-12-11T23:33:54.601Z,-0.76
2022-12-11T23:36:23.134Z,-0.76
2022-12-11T23:38:54.751Z,-0.77
2022-12-11T23:41:23.991Z,-0.77
2022-12-11T23:43:52.424Z,-0.77
2022-12-11T23:46:24.533Z,-0.77
2022-12-11T23:48:53.919Z,-0.78
2022-12-11T23:51:24.121Z,-0.78
2022-12-11T23:53:53.189Z,-0.79
2022-12-11T23:56:28.313Z,-0.81
2022-12-11T23:58:57.699Z,-0.81
